createdAt,value
2018-03-21T00:00:58.626Z,97.82
2018-03-21T00:01:58.607Z,98.1
2018-03-21T00:02:58.582Z,98.2
2018-03-21T00:03:58.380Z,98.39
2018-03-21T00:04:58.558Z,98.2
2018-03-21T00:05:58.547Z,98.58
2018-03-21T00:06:58.545Z,98.48
2018-03-21T00:07:58.532Z,97.82
2018-03-21T00:08:58.518Z,98.01
2018-03-21T00:09:58.512Z,97.82
2018-03-21T00:10:58.499Z,97.91
2018-03-21T00:11:58.229Z,98.01
2018-03-21T00:12:58.476Z,98.2
2018-03-21T00:13:58.463Z,98.2
2018-03-21T00:14:58.519Z,97.91
2018-03-21T00:15:58.458Z,98.2
2018-03-21T00:16:58.177Z,97.82
2018-03-21T00:17:58.169Z,97.82
2018-03-21T00:18:58.425Z,98.2
2018-03-21T00:19:58.392Z,97.72
2018-03-21T00:20:58.396Z,97.25
2018-03-21T00:21:58.373Z,97.72
2018-03-21T00:22:58.109Z,97.16
2018-03-21T00:23:58.364Z,98.01
2018-03-21T00:24:58.354Z,97.44
2018-03-21T00:25:58.335Z,98.29
2018-03-21T00:26:58.315Z,98.01
2018-03-21T00:27:58.305Z,97.53
2018-03-21T00:28:58.294Z,97.44
2018-03-21T00:29:58.287Z,97.82
2018-03-21T00:30:58.027Z,98.1
2018-03-21T00:31:58.282Z,97.44
2018-03-21T00:32:58.246Z,98.01
2018-03-21T00:33:57.984Z,97.82
2018-03-21T00:34:58.227Z,97.34
2018-03-21T00:35:58.240Z,97.63
2018-03-21T00:36:58.210Z,98.1
2018-03-21T00:37:58.189Z,97.25
2018-03-21T00:38:58.181Z,97.25
2018-03-21T00:39:57.920Z,97.63
2018-03-21T00:40:59.165Z,97.96
2018-03-21T00:41:57.890Z,97.96
2018-03-21T00:42:58.136Z,97.39
2018-03-21T00:43:58.126Z,98.05
2018-03-21T00:44:57.865Z,97.86
2018-03-21T00:45:58.117Z,97.86
2018-03-21T00:46:58.086Z,98.14
2018-03-21T00:47:57.826Z,97.86
2018-03-21T00:48:58.076Z,98.05
2018-03-21T00:49:58.053Z,98.14
2018-03-21T00:50:58.051Z,97.86
2018-03-21T00:51:58.042Z,97.86
2018-03-21T00:52:58.045Z,97.96
2018-03-21T00:53:58.012Z,97.67
2018-03-21T00:54:57.996Z,97.39
2018-03-21T00:55:57.985Z,97.39
2018-03-21T00:56:57.782Z,97.58
2018-03-21T00:57:57.706Z,97.58
2018-03-21T00:58:57.949Z,97.2
2018-03-21T00:59:57.940Z,97.49
2018-03-21T01:00:57.936Z,97.49
2018-03-21T01:01:57.663Z,97.77
2018-03-21T01:02:57.644Z,97.58
2018-03-21T01:03:57.894Z,98.14
2018-03-21T01:04:57.623Z,97.86
2018-03-21T01:05:57.610Z,97.96
2018-03-21T01:06:57.597Z,98.05
2018-03-21T01:07:57.844Z,98.33
2018-03-21T01:08:57.838Z,98.52
2018-03-21T01:09:57.828Z,98.14
2018-03-21T01:10:57.816Z,98.62
2018-03-21T01:11:57.795Z,98.24
2018-03-21T01:12:57.779Z,98.24
2018-03-21T01:13:57.770Z,98.52
2018-03-21T01:14:57.507Z,97.77
2018-03-21T01:15:57.753Z,97.77
2018-03-21T01:16:57.740Z,97.96
2018-03-21T01:17:57.469Z,97.86
2018-03-21T01:18:57.455Z,97.86
2018-03-21T01:19:57.705Z,97.67
2018-03-21T01:20:57.704Z,97.77
2018-03-21T01:21:57.421Z,97.77
2018-03-21T01:22:57.663Z,97.96
2018-03-21T01:23:57.397Z,97.96
2018-03-21T01:24:57.644Z,97.3
2018-03-21T01:25:57.629Z,97.86
2018-03-21T01:26:57.873Z,97.67
2018-03-21T01:27:57.602Z,97.67
2018-03-21T01:28:57.597Z,97.77
2018-03-21T01:29:57.582Z,97.49
2018-03-21T01:30:57.573Z,96.73
2018-03-21T01:31:57.561Z,97.49
2018-03-21T01:32:57.540Z,97.2
2018-03-21T01:33:57.535Z,97.3
2018-03-21T01:34:57.516Z,97.58
2018-03-21T01:35:57.252Z,97.3
2018-03-21T01:36:57.248Z,97.3
2018-03-21T01:37:57.481Z,97.2
2018-03-21T01:38:57.482Z,97.11
2018-03-21T01:39:57.481Z,97.86
2018-03-21T01:40:57.446Z,97.01
2018-03-21T01:41:58.749Z,98.05
2018-03-21T01:42:57.430Z,97.67
2018-03-21T01:43:57.406Z,97.67
2018-03-21T01:44:57.398Z,97.86
2018-03-21T01:45:57.393Z,97.67
2018-03-21T01:46:57.375Z,97.86
2018-03-21T01:47:57.111Z,97.86
2018-03-21T01:48:57.103Z,97.72
2018-03-21T01:49:57.342Z,97.96
2018-03-21T01:50:57.339Z,97.91
2018-03-21T01:51:57.063Z,97.67
2018-03-21T01:52:57.301Z,97.34
2018-03-21T01:53:57.291Z,97.86
2018-03-21T01:54:57.286Z,98
2018-03-21T01:55:57.258Z,98.28
2018-03-21T01:56:57.255Z,97.81
2018-03-21T01:57:57.235Z,97.91
2018-03-21T01:58:57.224Z,98.05
2018-03-21T01:59:57.218Z,97.63
2018-03-21T02:00:57.203Z,97.58
2018-03-21T02:01:57.195Z,97.34
2018-03-21T02:02:57.174Z,97.86
2018-03-21T02:03:57.174Z,98
2018-03-21T02:04:56.933Z,97.25
2018-03-21T02:05:57.146Z,97.44
2018-03-21T02:06:57.125Z,97.91
2018-03-21T02:07:57.111Z,97.91
2018-03-21T02:08:57.107Z,98.38
2018-03-21T02:09:57.090Z,97.91
2018-03-21T02:10:57.082Z,98.1
2018-03-21T02:11:56.816Z,97.91
2018-03-21T02:12:57.056Z,97.91
2018-03-21T02:13:57.037Z,98.1
2018-03-21T02:14:56.775Z,98.1
2018-03-21T02:15:57.017Z,97.91
2018-03-21T02:16:56.746Z,98.47
2018-03-21T02:17:56.988Z,98.57
2018-03-21T02:18:56.723Z,98.19
2018-03-21T02:19:56.964Z,98.28
2018-03-21T02:20:56.696Z,98.47
2018-03-21T02:21:56.951Z,98.85
2018-03-21T02:22:56.932Z,99.33
2018-03-21T02:23:56.921Z,98.85
2018-03-21T02:24:56.900Z,99.04
2018-03-21T02:25:56.889Z,99.52
2018-03-21T02:26:56.892Z,99.99
2018-03-21T02:27:56.871Z,99.99
2018-03-21T02:28:56.908Z,99.99
2018-03-21T02:29:56.844Z,99.99
2018-03-21T02:30:56.831Z,99.8
2018-03-21T02:31:56.817Z,99.99
2018-03-21T02:32:56.821Z,99.99
2018-03-21T02:33:56.549Z,99.99
2018-03-21T02:34:56.525Z,99.99
2018-03-21T02:35:56.778Z,99.99
2018-03-21T02:36:56.767Z,99.99
2018-03-21T02:37:56.489Z,99.99
2018-03-21T02:38:56.751Z,99.99
2018-03-21T02:39:56.717Z,99.8
2018-03-21T02:40:56.452Z,99.04
2018-03-21T02:41:56.695Z,99.04
2018-03-21T02:42:56.683Z,99.14
2018-03-21T02:43:56.430Z,99.23
2018-03-21T02:44:56.658Z,99.71
2018-03-21T02:45:56.642Z,98.85
2018-03-21T02:46:56.628Z,98.85
2018-03-21T02:47:56.624Z,98.85
2018-03-21T02:48:56.604Z,98.47
2018-03-21T02:49:56.602Z,98.57
2018-03-21T02:50:56.588Z,98.28
2018-03-21T02:51:56.568Z,98.19
2018-03-21T02:52:56.554Z,98.28
2018-03-21T02:53:56.548Z,98.47
2018-03-21T02:54:56.539Z,98.57
2018-03-21T02:55:56.513Z,97.72
2018-03-21T02:56:56.520Z,97.81
2018-03-21T02:57:56.534Z,98.76
2018-03-21T02:58:56.493Z,97.91
2018-03-21T02:59:56.465Z,98.47
2018-03-21T03:00:56.455Z,99.14
2018-03-21T03:01:56.497Z,99.14
2018-03-21T03:02:56.434Z,98.47
2018-03-21T03:03:56.431Z,98.38
2018-03-21T03:04:56.411Z,97.81
2018-03-21T03:05:56.401Z,98.76
2018-03-21T03:06:56.376Z,98.19
2018-03-21T03:07:56.362Z,98.85
2018-03-21T03:08:56.363Z,99.99
2018-03-21T03:09:56.082Z,99.99
2018-03-21T03:10:56.327Z,99.99
2018-03-21T03:11:56.314Z,99.99
2018-03-21T03:12:56.046Z,99.61
2018-03-21T03:13:56.288Z,99.61
2018-03-21T03:14:56.273Z,99.99
2018-03-21T03:15:56.270Z,99.99
2018-03-21T03:16:56.249Z,99.99
2018-03-21T03:17:56.242Z,99.99
2018-03-21T03:18:56.223Z,99.99
2018-03-21T03:19:55.966Z,99.99
2018-03-21T03:20:56.208Z,99.99
2018-03-21T03:21:55.951Z,99.99
2018-03-21T03:22:55.917Z,99.99
2018-03-21T03:23:56.166Z,99.99
2018-03-21T03:24:56.161Z,99.99
2018-03-21T03:25:55.887Z,99.99
2018-03-21T03:26:56.143Z,99.99
2018-03-21T03:27:56.109Z,99.99
2018-03-21T03:28:56.094Z,99.99
2018-03-21T03:29:56.097Z,99.99
2018-03-21T03:30:56.088Z,99.99
2018-03-21T03:31:56.054Z,99.99
2018-03-21T03:32:56.047Z,99.99
2018-03-21T03:33:56.034Z,99.99
2018-03-21T03:34:56.019Z,99.99
2018-03-21T03:35:56.012Z,99.99
2018-03-21T03:36:55.992Z,99.99
2018-03-21T03:37:55.986Z,99.99
2018-03-21T03:38:55.968Z,99.99
2018-03-21T03:39:55.957Z,99.99
2018-03-21T03:40:55.955Z,99.99
2018-03-21T03:41:55.934Z,99.99
2018-03-21T03:43:00.988Z,99.99
2018-03-21T03:43:55.918Z,99.99
2018-03-21T03:44:55.895Z,99.99
2018-03-21T03:45:55.638Z,99.99
2018-03-21T03:46:55.610Z,99.99
2018-03-21T03:47:55.606Z,99.99
2018-03-21T03:48:55.848Z,99.99
2018-03-21T03:49:55.829Z,99.99
2018-03-21T03:50:55.822Z,99.99
2018-03-21T03:51:55.804Z,99.99
2018-03-21T03:52:55.535Z,99.99
2018-03-21T03:53:55.784Z,99.99
2018-03-21T03:54:55.778Z,99.99
2018-03-21T03:55:55.510Z,99.99
2018-03-21T03:56:55.736Z,99.99
2018-03-21T03:57:55.477Z,99.99
2018-03-21T03:58:55.467Z,99.99
2018-03-21T03:59:55.707Z,99.99
2018-03-21T04:00:55.694Z,99.99
2018-03-21T04:01:55.674Z,99.99
2018-03-21T04:02:55.667Z,99.99
2018-03-21T04:03:55.659Z,99.99
2018-03-21T04:04:55.635Z,99.99
2018-03-21T04:05:55.625Z,99.99
2018-03-21T04:06:55.621Z,99.99
2018-03-21T04:07:55.601Z,99.99
2018-03-21T04:08:55.584Z,99.99
2018-03-21T04:09:55.572Z,99.99
2018-03-21T04:10:55.561Z,99.99
2018-03-21T04:11:55.553Z,99.99
2018-03-21T04:12:55.539Z,99.99
2018-03-21T04:13:55.266Z,99.99
2018-03-21T04:14:55.505Z,99.99
2018-03-21T04:15:55.498Z,99.99
2018-03-21T04:16:55.478Z,99.99
2018-03-21T04:17:55.472Z,99.99
2018-03-21T04:18:55.465Z,99.99
2018-03-21T04:19:55.442Z,99.99
2018-03-21T04:20:55.178Z,99.99
2018-03-21T04:21:55.165Z,99.99
2018-03-21T04:22:55.416Z,99.99
2018-03-21T04:23:55.393Z,99.99
2018-03-21T04:24:55.381Z,99.99
2018-03-21T04:25:55.372Z,99.99
2018-03-21T04:26:55.350Z,99.99
2018-03-21T04:27:55.354Z,99.99
2018-03-21T04:28:55.377Z,99.99
2018-03-21T04:29:55.319Z,99.99
2018-03-21T04:30:55.316Z,99.99
2018-03-21T04:31:55.287Z,99.99
2018-03-21T04:32:55.276Z,99.99
2018-03-21T04:33:55.280Z,99.99
2018-03-21T04:34:55.263Z,99.99
2018-03-21T04:35:54.984Z,99.99
2018-03-21T04:36:55.225Z,99.99
2018-03-21T04:37:55.208Z,99.99
2018-03-21T04:38:55.201Z,99.99
2018-03-21T04:39:55.196Z,99.99
2018-03-21T04:40:55.207Z,99.99
2018-03-21T04:41:55.160Z,99.99
2018-03-21T04:42:55.157Z,99.99
2018-03-21T04:43:55.338Z,99.99
2018-03-21T04:44:55.120Z,99.99
2018-03-21T04:45:55.116Z,99.99
2018-03-21T04:46:55.097Z,99.99
2018-03-21T04:47:55.088Z,99.99
2018-03-21T04:48:55.073Z,99.99
2018-03-21T04:49:54.804Z,99.99
2018-03-21T04:50:55.048Z,99.99
2018-03-21T04:51:55.032Z,99.99
2018-03-21T04:52:55.024Z,99.99
2018-03-21T04:53:55.005Z,99.99
2018-03-21T04:54:54.989Z,99.99
2018-03-21T04:55:54.978Z,99.99
2018-03-21T04:56:54.967Z,99.99
2018-03-21T04:57:54.950Z,99.99
2018-03-21T04:58:54.934Z,99.99
2018-03-21T04:59:54.926Z,99.99
2018-03-21T05:00:54.920Z,99.99
2018-03-21T05:01:54.998Z,99.99
2018-03-21T05:02:54.629Z,99.99
2018-03-21T05:03:54.880Z,99.99
2018-03-21T05:04:54.857Z,99.99
2018-03-21T05:05:54.846Z,99.99
2018-03-21T05:06:54.836Z,99.99
2018-03-21T05:07:54.821Z,99.99
2018-03-21T05:08:54.807Z,99.99
2018-03-21T05:09:54.791Z,99.99
2018-03-21T05:10:54.779Z,99.99
2018-03-21T05:11:54.765Z,99.99
2018-03-21T05:12:54.752Z,99.99
2018-03-21T05:13:54.748Z,99.99
2018-03-21T05:14:54.728Z,99.99
2018-03-21T05:15:54.723Z,99.99
2018-03-21T05:16:54.741Z,99.99
2018-03-21T05:17:54.689Z,99.99
2018-03-21T05:18:54.671Z,99.99
2018-03-21T05:19:54.665Z,99.99
2018-03-21T05:20:54.646Z,99.99
2018-03-21T05:21:54.636Z,99.99
2018-03-21T05:22:54.624Z,99.99
2018-03-21T05:23:54.351Z,99.99
2018-03-21T05:24:54.594Z,99.99
2018-03-21T05:25:54.586Z,99.99
2018-03-21T05:26:54.316Z,99.99
2018-03-21T05:27:54.595Z,99.99
2018-03-21T05:28:54.544Z,99.99
2018-03-21T05:29:54.529Z,99.99
2018-03-21T05:30:54.519Z,99.99
2018-03-21T05:31:54.523Z,99.99
2018-03-21T05:32:54.492Z,99.99
2018-03-21T05:33:54.485Z,99.99
2018-03-21T05:34:54.486Z,99.99
2018-03-21T05:35:54.456Z,99.99
2018-03-21T05:36:54.439Z,99.99
2018-03-21T05:37:54.426Z,99.99
2018-03-21T05:38:54.410Z,99.99
2018-03-21T05:39:54.397Z,99.99
2018-03-21T05:40:54.386Z,99.99
2018-03-21T05:41:54.449Z,99.99
2018-03-21T05:42:54.101Z,99.99
2018-03-21T05:43:54.340Z,99.99
2018-03-21T05:44:59.946Z,99.99
2018-03-21T05:45:54.321Z,99.99
2018-03-21T05:46:54.062Z,99.99
2018-03-21T05:47:54.311Z,99.99
2018-03-21T05:48:54.024Z,99.99
2018-03-21T05:49:54.010Z,99.99
2018-03-21T05:50:54.259Z,99.99
2018-03-21T05:51:54.244Z,99.99
2018-03-21T05:52:54.227Z,99.99
2018-03-21T05:53:53.957Z,99.99
2018-03-21T05:54:54.201Z,99.99
2018-03-21T05:55:54.182Z,99.99
2018-03-21T05:56:54.230Z,99.99
2018-03-21T05:57:54.163Z,99.99
2018-03-21T05:58:54.145Z,99.99
2018-03-21T05:59:53.878Z,99.99
2018-03-21T06:00:53.867Z,99.99
2018-03-21T06:01:53.853Z,99.99
2018-03-21T06:02:54.097Z,99.99
2018-03-21T06:03:54.127Z,99.99
2018-03-21T06:04:54.126Z,99.99
2018-03-21T06:05:54.067Z,99.99
2018-03-21T06:06:54.050Z,99.99
2018-03-21T06:07:54.030Z,99.99
2018-03-21T06:08:54.022Z,99.99
2018-03-21T06:09:54.012Z,99.99
2018-03-21T06:10:53.990Z,99.99
2018-03-21T06:11:54.039Z,99.99
2018-03-21T06:12:53.978Z,99.99
2018-03-21T06:13:53.705Z,99.99
2018-03-21T06:14:53.953Z,99.99
2018-03-21T06:15:55.829Z,99.99
2018-03-21T06:16:53.930Z,99.99
2018-03-21T06:17:53.650Z,99.99
2018-03-21T06:27:05.347Z,99.99
2018-03-21T06:28:05.337Z,99.99
2018-03-21T06:29:05.329Z,99.99
2018-03-21T06:30:05.054Z,99.99
2018-03-21T06:31:05.108Z,99.99
2018-03-21T06:32:07.539Z,99.99
2018-03-21T06:33:05.264Z,99.99
2018-03-21T06:34:04.986Z,99.99
2018-03-21T06:35:05.237Z,99.99
2018-03-21T06:36:05.237Z,99.99
2018-03-21T06:37:05.457Z,99.99
2018-03-21T06:38:04.964Z,99.99
2018-03-21T06:39:05.182Z,99.99
2018-03-21T06:40:04.908Z,99.99
2018-03-21T06:41:05.194Z,99.99
2018-03-21T06:42:05.308Z,99.99
2018-03-21T06:43:04.874Z,99.99
2018-03-21T06:44:05.117Z,99.52
2018-03-21T06:45:04.861Z,98.85
2018-03-21T06:46:04.893Z,99.23
2018-03-21T06:47:08.681Z,98.85
2018-03-21T06:48:05.090Z,98.95
2018-03-21T06:49:05.062Z,98.57
2018-03-21T06:50:05.065Z,98.33
2018-03-21T06:51:05.115Z,97.96
2018-03-21T06:52:04.765Z,97.11
2018-03-21T06:53:04.752Z,98.24
2018-03-21T06:54:04.997Z,97.58
2018-03-21T06:55:04.989Z,97.39
2018-03-21T06:56:05.024Z,96.92
2018-03-21T06:57:04.968Z,97.2
2018-03-21T06:58:04.959Z,96.73
2018-03-21T06:59:04.938Z,96.54
2018-03-21T07:00:04.930Z,96.35
2018-03-21T07:01:04.925Z,96.64
2018-03-21T07:02:04.905Z,96.54
2018-03-21T07:03:04.889Z,97.58
2018-03-21T07:04:04.882Z,97.11
2018-03-21T07:05:04.632Z,95.03
2018-03-21T07:06:04.691Z,93.56
2018-03-21T07:07:04.601Z,94.04
2018-03-21T07:08:04.581Z,90.25
2018-03-21T07:09:04.824Z,88.31
2018-03-21T07:10:04.818Z,85.57
2018-03-21T07:11:04.839Z,84.19
2018-03-21T07:12:04.799Z,81.82
2018-03-21T07:13:04.785Z,79.58
2018-03-21T07:14:04.795Z,77.12
2018-03-21T07:15:04.528Z,76.59
2018-03-21T07:16:04.841Z,73.22
2018-03-21T07:17:04.502Z,70.65
2018-03-21T07:18:09.596Z,70.21
2018-03-21T07:19:04.740Z,68.89
2018-03-21T07:20:04.480Z,66.46
2018-03-21T07:21:04.726Z,65.79
2018-03-21T07:22:04.736Z,64.84
2018-03-21T07:23:04.469Z,65.41
2018-03-21T07:24:04.458Z,65.41
2018-03-21T07:25:04.712Z,64.69
2018-03-21T07:26:04.788Z,62.62
2018-03-21T07:27:04.704Z,59.96
2018-03-21T07:28:04.702Z,57.33
2018-03-21T07:29:04.703Z,57.4
2018-03-21T07:30:04.438Z,58.35
2018-03-21T07:31:04.729Z,60.69
2018-03-21T07:32:04.683Z,61.45
2018-03-21T07:33:04.686Z,61.36
2018-03-21T07:34:04.676Z,61.42
2018-03-21T07:35:04.418Z,63.04
2018-03-21T07:36:04.447Z,62.12
2018-03-21T07:37:04.670Z,60.5
2018-03-21T07:38:04.665Z,60.22
2018-03-21T07:39:04.478Z,59.96
2018-03-21T07:40:04.665Z,58.83
2018-03-21T07:41:04.409Z,58.09
2018-03-21T07:42:04.402Z,55.55
2018-03-21T07:43:04.679Z,54.69
2018-03-21T07:44:04.712Z,54.44
2018-03-21T07:45:04.689Z,52.72
2018-03-21T07:46:04.746Z,51.87
2018-03-21T07:47:04.656Z,52.63
2018-03-21T07:48:04.400Z,51.68
2018-03-21T07:49:04.670Z,50.94
2018-03-21T07:50:04.661Z,51.58
2018-03-21T07:51:04.719Z,51.97
2018-03-21T07:52:04.394Z,51.56
2018-03-21T07:53:04.392Z,51.93
2018-03-21T07:54:04.674Z,53.91
2018-03-21T07:55:04.390Z,54.74
2018-03-21T07:56:04.398Z,55.97
2018-03-21T07:57:04.662Z,57.87
2018-03-21T07:58:04.644Z,58.63
2018-03-21T07:59:04.644Z,57.5
2018-03-21T08:00:04.392Z,56.83
2018-03-21T08:01:04.419Z,56.26
2018-03-21T08:02:04.664Z,56.13
2018-03-21T08:03:04.386Z,56.16
2018-03-21T08:04:04.641Z,56.26
2018-03-21T08:05:04.379Z,56.07
2018-03-21T08:06:04.417Z,54.38
2018-03-21T08:07:04.632Z,54.13
2018-03-21T08:08:04.636Z,52.22
2018-03-21T08:09:04.381Z,52.51
2018-03-21T08:10:04.632Z,51.84
2018-03-21T08:11:04.403Z,50.99
2018-03-21T08:12:04.634Z,51.56
2018-03-21T08:13:04.628Z,52.48
2018-03-21T08:14:04.637Z,52.39
2018-03-21T08:15:04.632Z,53.43
2018-03-21T08:16:04.674Z,52.98
2018-03-21T08:17:04.665Z,50.79
2018-03-21T08:18:04.622Z,49.11
2018-03-21T08:19:04.517Z,48.94
2018-03-21T08:20:04.628Z,49.58
2018-03-21T08:21:04.680Z,49.11
2018-03-21T08:22:04.378Z,49.68
2018-03-21T08:23:04.625Z,49.68
2018-03-21T08:24:04.626Z,49.77
2018-03-21T08:25:04.380Z,48.94
2018-03-21T08:26:04.684Z,47.23
2018-03-21T08:27:04.627Z,46.66
2018-03-21T08:28:04.705Z,47.47
2018-03-21T08:29:04.693Z,50.01
2018-03-21T08:30:04.623Z,51.7
2018-03-21T08:31:04.661Z,54.68
2018-03-21T08:32:04.739Z,56.27
2018-03-21T08:33:04.625Z,59.11
2018-03-21T08:34:04.363Z,60.03
2018-03-21T08:35:04.615Z,61.55
2018-03-21T08:36:04.389Z,62.47
2018-03-21T08:37:04.625Z,63.79
2018-03-21T08:38:04.631Z,65.31
2018-03-21T08:39:04.629Z,65.31
2018-03-21T08:40:04.419Z,66.45
2018-03-21T08:41:04.500Z,66.07
2018-03-21T08:42:04.347Z,66.13
2018-03-21T08:43:04.605Z,67.08
2018-03-21T08:44:04.587Z,66.99
2018-03-21T08:45:04.588Z,68.02
2018-03-21T08:46:04.450Z,68.98
2018-03-21T08:47:04.574Z,70.01
2018-03-21T08:48:04.582Z,70.87
2018-03-21T08:49:09.466Z,69.17
2018-03-21T08:50:04.303Z,67.83
2018-03-21T08:51:04.553Z,68.4
2018-03-21T08:52:04.548Z,69.07
2018-03-21T08:53:04.549Z,68.69
2018-03-21T08:54:04.540Z,68.94
2018-03-21T08:55:04.537Z,69.03
2018-03-21T08:56:04.320Z,67.61
2018-03-21T08:57:04.522Z,67.33
2018-03-21T08:58:04.266Z,67.43
2018-03-21T08:59:04.255Z,67.61
2018-03-21T09:00:04.496Z,69.03
2018-03-21T09:01:04.366Z,67.99
2018-03-21T09:02:04.492Z,65.63
2018-03-21T09:03:04.472Z,63.54
2018-03-21T09:04:04.463Z,63.64
2018-03-21T09:05:04.465Z,62.24
2018-03-21T09:06:04.544Z,61.83
2018-03-21T09:07:04.545Z,62.24
2018-03-21T09:08:04.437Z,62.72
2018-03-21T09:09:04.499Z,63.39
2018-03-21T09:10:04.491Z,64.14
2018-03-21T09:11:04.558Z,63.76
2018-03-21T09:12:04.410Z,62.43
2018-03-21T09:13:04.201Z,62.43
2018-03-21T09:14:04.398Z,61.68
2018-03-21T09:15:04.137Z,62.53
2018-03-21T09:16:04.374Z,62.47
2018-03-21T09:17:04.399Z,61.8
2018-03-21T09:18:04.105Z,59.05
2018-03-21T09:19:04.107Z,59.34
2018-03-21T09:20:04.351Z,60
2018-03-21T09:21:04.443Z,59.91
2018-03-21T09:22:04.335Z,59.91
2018-03-21T09:23:04.072Z,60.47
2018-03-21T09:24:04.317Z,60.95
2018-03-21T09:25:04.056Z,58.86
2018-03-21T09:26:04.152Z,57.82
2018-03-21T09:27:04.300Z,56.87
2018-03-21T09:28:04.297Z,57.92
2018-03-21T09:29:04.289Z,60.16
2018-03-21T09:30:04.283Z,60.06
2018-03-21T09:31:04.279Z,57.82
2018-03-21T09:32:04.007Z,59.12
2018-03-21T09:33:04.004Z,59.22
2018-03-21T09:34:03.997Z,60.35
2018-03-21T09:35:05.043Z,58.77
2018-03-21T09:36:04.341Z,58.11
2018-03-21T09:37:03.979Z,57.92
2018-03-21T09:38:03.965Z,57.25
2018-03-21T09:39:03.962Z,57.16
2018-03-21T09:40:03.951Z,57.44
2018-03-21T09:41:03.949Z,57.16
2018-03-21T09:42:03.938Z,56.21
2018-03-21T09:43:04.185Z,55.83
2018-03-21T09:44:03.921Z,56.21
2018-03-21T09:45:04.184Z,59.31
2018-03-21T09:46:04.193Z,59.5
2018-03-21T09:47:03.912Z,59.03
2018-03-21T09:48:03.892Z,59.78
2018-03-21T09:49:04.161Z,59.63
2018-03-21T09:50:03.878Z,58.67
2018-03-21T09:51:03.870Z,56.49
2018-03-21T09:52:04.126Z,54.79
2018-03-21T09:53:04.108Z,54.03
2018-03-21T09:54:04.107Z,54.69
2018-03-21T09:55:04.100Z,57.82
2018-03-21T09:56:04.104Z,57.82
2018-03-21T09:57:03.842Z,55.17
2018-03-21T09:58:03.819Z,55.24
2018-03-21T09:59:03.813Z,57.51
2018-03-21T10:00:04.073Z,57.7
2018-03-21T10:01:03.845Z,57.23
2018-03-21T10:02:04.044Z,59.03
2018-03-21T10:03:03.788Z,61.02
2018-03-21T10:04:04.046Z,57.7
2018-03-21T10:05:04.024Z,55.93
2018-03-21T10:06:04.037Z,55.24
2018-03-21T10:07:04.003Z,54.57
2018-03-21T10:08:03.741Z,53.72
2018-03-21T10:09:03.735Z,53.44
2018-03-21T10:10:03.733Z,53.63
2018-03-21T10:11:03.792Z,53.44
2018-03-21T10:12:03.710Z,54
2018-03-21T10:13:03.704Z,54.57
2018-03-21T10:14:03.951Z,55.24
2018-03-21T10:15:03.946Z,54.1
2018-03-21T10:16:03.988Z,54.19
2018-03-21T10:17:03.928Z,55.33
2018-03-21T10:18:03.922Z,55.43
2018-03-21T10:19:03.924Z,55.52
2018-03-21T10:20:03.909Z,55.24
2018-03-21T10:21:03.940Z,55.24
2018-03-21T10:22:03.630Z,54.38
2018-03-21T10:23:03.886Z,53.63
2018-03-21T10:24:03.869Z,53.53
2018-03-21T10:25:03.609Z,53.34
2018-03-21T10:26:03.602Z,52.48
2018-03-21T10:27:03.595Z,53.15
2018-03-21T10:28:03.840Z,53.72
2018-03-21T10:58:04.470Z,48.06
2018-03-21T10:59:04.318Z,49.1
2018-03-21T11:00:04.294Z,50.15
2018-03-21T11:01:04.314Z,49.48
2018-03-21T11:02:04.316Z,48.65
2018-03-21T11:03:04.271Z,47.8
2018-03-21T11:04:03.993Z,49.19
2018-03-21T11:05:03.972Z,48.54
2018-03-21T11:06:04.325Z,50.17
2018-03-21T11:07:04.210Z,51.31
2018-03-21T11:08:03.948Z,52.35
2018-03-21T11:09:03.934Z,53.39
2018-03-21T11:10:04.181Z,53.3
2018-03-21T11:11:04.235Z,52.92
2018-03-21T11:12:04.172Z,52.83
2018-03-21T11:13:04.977Z,53.02
2018-03-21T11:14:04.148Z,52.16
2018-03-21T11:15:04.139Z,51.59
2018-03-21T11:16:04.176Z,50.55
2018-03-21T11:17:04.125Z,50.64
2018-03-21T11:18:03.859Z,51.03
2018-03-21T11:19:03.855Z,49.6
2018-03-21T11:20:04.110Z,48.46
2018-03-21T11:21:03.958Z,46.88
2018-03-21T11:22:04.089Z,46.47
2018-03-21T11:23:04.092Z,48.18
2018-03-21T11:24:03.818Z,49.32
2018-03-21T11:25:04.065Z,48.65
2018-03-21T11:26:03.888Z,48.65
2018-03-21T11:27:03.796Z,49.03
2018-03-21T11:28:05.949Z,49.41
2018-03-21T11:29:04.046Z,49.95
2018-03-21T11:30:03.774Z,49.95
2018-03-21T11:31:03.777Z,50.43
2018-03-21T11:32:04.024Z,50.05
2018-03-21T11:33:04.024Z,49.86
2018-03-21T11:34:04.054Z,49.95
2018-03-21T11:35:04.005Z,52.14
2018-03-21T11:36:03.787Z,51.18
2018-03-21T11:37:03.978Z,49.95
2018-03-21T11:38:03.718Z,49.67
2018-03-21T11:39:04.032Z,49.22
2018-03-21T11:40:03.968Z,49.29
2018-03-21T11:41:04.012Z,49.51
2018-03-21T11:42:03.974Z,48.82
2018-03-21T11:43:03.682Z,48.84
2018-03-21T11:44:03.939Z,49.19
2018-03-21T11:45:03.706Z,52.33
2018-03-21T11:46:03.911Z,52.33
2018-03-21T11:47:03.664Z,50.55
2018-03-21T11:48:03.903Z,49.22
2018-03-21T11:49:03.893Z,49.69
2018-03-21T11:50:03.885Z,49.98
2018-03-21T11:51:03.676Z,50.36
2018-03-21T11:52:03.869Z,50.64
2018-03-21T11:53:03.866Z,50.55
2018-03-21T11:54:03.861Z,51.4
2018-03-21T11:55:03.851Z,51.59
2018-03-21T11:56:03.843Z,51.4
2018-03-21T11:57:03.589Z,51.78
2018-03-21T11:58:03.831Z,51.12
2018-03-21T11:59:03.568Z,51.03
2018-03-21T12:00:03.557Z,51.57
2018-03-21T12:01:03.807Z,51.66
2018-03-21T12:02:03.808Z,52.04
2018-03-21T12:03:03.793Z,52.61
2018-03-21T12:04:03.787Z,52.61
2018-03-21T12:05:03.527Z,53.27
2018-03-21T12:06:03.780Z,53.87
2018-03-21T12:07:03.765Z,53.39
2018-03-21T12:08:03.757Z,52.54
2018-03-21T12:09:03.745Z,51.5
2018-03-21T12:10:03.751Z,51.59
2018-03-21T12:11:03.496Z,51.59
2018-03-21T12:12:03.748Z,51.78
2018-03-21T12:13:03.465Z,52.26
2018-03-21T12:14:03.806Z,52.35
2018-03-21T12:15:03.708Z,52.56
2018-03-21T12:16:03.449Z,51.72
2018-03-21T12:17:03.701Z,51.52
2018-03-21T12:18:03.702Z,50.67
2018-03-21T12:19:03.700Z,50.48
2018-03-21T12:20:03.432Z,49.91
2018-03-21T12:21:03.683Z,49.34
2018-03-21T12:22:03.656Z,49.72
2018-03-21T12:23:03.402Z,49.24
2018-03-21T12:24:03.644Z,50.45
2018-03-21T12:25:03.649Z,50.64
2018-03-21T12:26:03.654Z,50.74
2018-03-21T12:27:03.665Z,51.4
2018-03-21T12:28:03.625Z,51.4
2018-03-21T12:29:04.970Z,51.4
2018-03-21T12:30:03.606Z,51.4
2018-03-21T12:31:03.719Z,51.59
2018-03-21T12:32:03.592Z,52.8
2018-03-21T12:33:03.584Z,52.42
2018-03-21T12:34:03.327Z,53.02
2018-03-21T12:35:03.576Z,52.83
2018-03-21T12:36:03.568Z,52.26
2018-03-21T12:37:03.638Z,51.03
2018-03-21T12:38:03.553Z,50.45
2018-03-21T12:39:03.551Z,50.17
2018-03-21T12:40:03.532Z,49.98
2018-03-21T12:41:03.577Z,50.55
2018-03-21T12:42:03.528Z,51.4
2018-03-21T12:43:03.509Z,52.45
2018-03-21T12:44:03.504Z,52.73
2018-03-21T12:45:03.498Z,52.45
2018-03-21T12:46:03.499Z,51.52
2018-03-21T12:47:03.479Z,50.01
2018-03-21T12:48:03.479Z,48.68
2018-03-21T12:49:03.219Z,48.3
2018-03-21T12:50:03.632Z,48.2
2018-03-21T12:51:03.199Z,47.25
2018-03-21T12:52:03.192Z,45.9
2018-03-21T12:53:03.445Z,45.52
2018-03-21T12:54:03.434Z,45.81
2018-03-21T12:55:03.170Z,46.28
2018-03-21T12:56:03.614Z,46.47
2018-03-21T12:57:03.470Z,46.94
2018-03-21T12:58:03.404Z,46.66
2018-03-21T12:59:03.409Z,47.04
2018-03-21T13:00:03.397Z,47.04
2018-03-21T13:01:03.389Z,46.75
2018-03-21T13:02:03.124Z,46.75
2018-03-21T13:03:03.386Z,46.85
2018-03-21T13:04:03.371Z,46.85
2018-03-21T13:05:03.416Z,47.04
2018-03-21T13:06:03.094Z,46.37
2018-03-21T13:07:03.089Z,45.54
2018-03-21T13:08:03.355Z,46.19
2018-03-21T13:09:03.347Z,46.09
2018-03-21T13:10:03.075Z,46.11
2018-03-21T13:11:03.320Z,45.73
2018-03-21T13:12:03.333Z,45.92
2018-03-21T13:13:03.322Z,46.88
2018-03-21T13:14:03.299Z,46.21
2018-03-21T13:15:03.299Z,45.83
2018-03-21T13:16:03.297Z,44.88
2018-03-21T13:17:03.286Z,44.21
2018-03-21T13:18:03.283Z,44.02
2018-03-21T13:19:03.005Z,43.74
2018-03-21T13:20:03.007Z,44.21
2018-03-21T13:21:03.262Z,44.29
2018-03-21T13:22:03.242Z,43.43
2018-03-21T13:23:03.339Z,43.05
2018-03-21T13:24:03.234Z,42.86
2018-03-21T13:25:03.236Z,42.01
2018-03-21T13:26:03.239Z,42.3
2018-03-21T13:27:02.950Z,43.91
2018-03-21T13:28:02.986Z,44.85
2018-03-21T13:29:03.241Z,44.29
2018-03-21T13:30:05.118Z,44.67
2018-03-21T13:31:03.179Z,44.76
2018-03-21T13:32:03.167Z,43.91